Pocatello Regional Airport

Current Flights

Info
Name: Pocatello Regional Airport
Identifier:  PIH/KPIH
Local Time:  18. Jun 11:07
City
Flights per Day
9 flights
Distance: 233km (145mi)
Punctuality
87% (1 flights per day delayed)
Delay Average: 5 minutes
Current Weather
 20 C (Humidity: 45%)
  12kt (22km/h / 13mph) from 230°
  Few clouds at 11,000 feet (3,352 meter)
  16km (10 mi.)
 METAR KPIH 181553Z 23012KT 10SM FEW110 20/08 A3011 RMK AO2 SLP158 T02000078

Current Delays

Departures
N/A
Arrivals
N/A

Destinations

Top Destinations
Airport Flights
per week
Seats
per week
  Salt Lake City (SLC) 66 2,272 9 324
  Logan (LGU) 1 - 0 0
  Portland (PDX) 1 - 0 0
  Bountiful (BTF) 1 11 0 1
  Boise (BOI) 1 - 0 0
  Ogden (OGD) 0 - 0 0
  Idaho Falls (IDA) 0 - 0 0
  Hailey (SUN) 0 - 0 0
  San Diego (CLD) 0 - 0 0
  Bellingham (BLI) 0 - 0 0
  Pasco (PSC) 0 - 0 0

Airlines & Planes

Top Airlines
Airline Flights
per Day
Seats
per Day
  SkyWest Airlines 6 326
Alpine Air Express 1 -
  Federal Express (FedEx) 1 0
  Novair 0 -
  Flybe Nordic 0 -
Jet Charter Inc ( Franklin Lakes Nj ) 0 -
Nordwind Airlines 0 -
  Nolinor Aviation 0 -
  Ameriflight 0 -
  National Airlines 0 -
Top Plane Types
Model Flights Seats
Bombardier CRJ200 5.7/day 285/day 285
Beech 1900D 1.5/day - 0
Cessna C208 1.4/day - -0.5333333333333333
Bombardier CRJ100 0.5/day 23/day 23.333333333333332
Bombardier CRJ900 0.2/day 15/day 15.2
Beech B300 Super King Air 350 0.2/day - 0
Cessna C172 0.1/day - 0
Beech E90 King Air 0.1/day - 0